Terminal Aerodrome Forecast
Issued by NWS Sioux Falls, SD

Home | Current Version | Previous Version | Graphics & Text | Print | Product List | Glossary On
Versions: 1 2 3 4 5 6 7 8 9 10 11 12 13 14 15
212
FTUS43 KFSD 212320
TAFFSD
TAF
KFSD 212320Z 2200/2224 04010KT P6SM SCT200
     FM220500 08007KT P6SM BKN200
     FM220900 11009KT P6SM BKN080
     FM221500 14013G19KT 5SM -SN OVC025
     FM221800 15016G24KT P6SM OVC050=

USA.gov is the U.S. government's official web portal to all federal, state and local government web resources and services.